FAMM/MBD METAR and TAF weather

Enter ICAO airport designator
Station Type Date Time Source
FAMM METAR 2019/10/16 19:00 UTC NOAA

FAMM 161900Z AUTO 05006KT //// // ////// 24/04 Q1024


Station Type Date Time Source
FAMM Decoded METAR 2019/10/16 19:00 UTC NOAA

Mafikeng Intl. Ad, South Africa (FAMM) 25-47S 025-32E 1300M
Oct 16, 2019 - 03:00 PM EDT / 2019.10.16 1900 UTC
Wind: from the NE (050 degrees) at 7 MPH (6 KT):0
Temperature: 75 F (24 C)
Dew Point: 39 F (4 C)
Relative Humidity: 27%
Pressure (altimeter): 30.24 in. Hg (1024 hPa)
ob: FAMM 161900Z AUTO 05006KT //// // ////// 24/04 Q1024
cycle: 19

Station Type Date Time Source
FAMM TAF 2019/01/01 10:00 UTC NOAA

TAF FAMM 010900Z 0110/0118 04008KT 9999 BKN015
BECMG 0111/0113 34010KT BKN025 TX25/0113Z TN22/0118Z

Example: see airport list